VOML/IXE METAR and TAF weather

Enter ICAO airport designator
Station Type Date Time Source
VOML METAR 2019/02/23 23:00 UTC NOAA

VOML 232300Z 11005KT 5000 BR NSC 23/20 Q1009 NOSIG


Station Type Date Time Source
VOML Decoded METAR 2019/02/23 23:00 UTC NOAA

Mangalore / Bajpe, India (VOML) 12-55N 074-53E 102M
Feb 23, 2019 - 06:00 PM EST / 2019.02.23 2300 UTC
Wind: from the ESE (110 degrees) at 6 MPH (5 KT):0
Visibility: 3 mile(s):0
Weather: mist
Temperature: 73 F (23 C)
Dew Point: 68 F (20 C)
Relative Humidity: 83%
Pressure (altimeter): 29.80 in. Hg (1009 hPa)
ob: VOML 232300Z 11005KT 5000 BR NSC 23/20 Q1009 NOSIG
cycle: 23

Station Type Date Time Source
VOML TAF 2019/02/23 18:00 UTC NOAA

TAF VOML 231700Z 2318/2424 VRB02KT 6000 FEW015
BECMG 2321/2322 11005KT
TEMPO 2400/2403 4000 BR FEW010
BECMG 2407/2408 27010KT
BECMG 2416/2417 VRB02KT
BECMG 2421/2422 11005KT


Example: see airport list